sensor_id;sensor_type;location;lat;lon;timestamp;pressure;altitude;pressure_sealevel;temperature;humidity
19594;BME280;9944;48.240;16.478;2023-04-19T00:01:42;100033.84;;;9.83;72.88
19594;BME280;9944;48.240;16.478;2023-04-19T00:05:46;100033.88;;;9.79;72.69
19594;BME280;9944;48.240;16.478;2023-04-19T00:09:49;100032.06;;;9.73;72.68
19594;BME280;9944;48.240;16.478;2023-04-19T00:13:52;100025.91;;;9.73;72.91
19594;BME280;9944;48.240;16.478;2023-04-19T00:17:57;100025.03;;;9.67;72.89
19594;BME280;9944;48.240;16.478;2023-04-19T00:22:00;100020.63;;;9.63;72.74
19594;BME280;9944;48.240;16.478;2023-04-19T00:26:03;100017.09;;;9.60;72.96
19594;BME280;9944;48.240;16.478;2023-04-19T00:30:07;100013.56;;;9.59;73.32
19594;BME280;9944;48.240;16.478;2023-04-19T00:34:12;100018.84;;;9.59;73.29
19594;BME280;9944;48.240;16.478;2023-04-19T00:38:15;100005.66;;;9.55;73.08
19594;BME280;9944;48.240;16.478;2023-04-19T00:42:19;100006.50;;;9.52;73.65
19594;BME280;9944;48.240;16.478;2023-04-19T00:46:22;100000.38;;;9.52;73.53
19594;BME280;9944;48.240;16.478;2023-04-19T00:50:27;99984.53;;;9.48;73.74
19594;BME280;9944;48.240;16.478;2023-04-19T00:54:32;99995.06;;;9.44;73.88
19594;BME280;9944;48.240;16.478;2023-04-19T00:58:36;99994.16;;;9.42;74.07
19594;BME280;9944;48.240;16.478;2023-04-19T01:02:41;99981.88;;;9.38;74.28
19594;BME280;9944;48.240;16.478;2023-04-19T01:06:46;99980.97;;;9.34;74.28
19594;BME280;9944;48.240;16.478;2023-04-19T01:10:49;99985.38;;;9.34;74.52
19594;BME280;9944;48.240;16.478;2023-04-19T01:14:52;99980.09;;;9.30;74.65
19594;BME280;9944;48.240;16.478;2023-04-19T01:18:56;99971.31;;;9.28;74.75
19594;BME280;9944;48.240;16.478;2023-04-19T01:23:01;99973.03;;;9.25;74.72
19594;BME280;9944;48.240;16.478;2023-04-19T01:27:04;99969.50;;;9.23;74.80
19594;BME280;9944;48.240;16.478;2023-04-19T01:31:07;99973.00;;;9.20;74.91
19594;BME280;9944;48.240;16.478;2023-04-19T01:35:10;99958.97;;;9.18;75.23
19594;BME280;9944;48.240;16.478;2023-04-19T01:39:15;99973.88;;;9.18;75.12
19594;BME280;9944;48.240;16.478;2023-04-19T01:43:18;99962.44;;;9.14;75.40
19594;BME280;9944;48.240;16.478;2023-04-19T01:47:22;99958.03;;;9.08;75.29
19594;BME280;9944;48.240;16.478;2023-04-19T01:51:25;99954.50;;;9.06;75.27
19594;BME280;9944;48.240;16.478;2023-04-19T01:55:30;99955.38;;;9.05;75.40
19594;BME280;9944;48.240;16.478;2023-04-19T01:59:33;99953.63;;;9.04;75.56
19594;BME280;9944;48.240;16.478;2023-04-19T02:03:36;99951.84;;;9.03;75.94
19594;BME280;9944;48.240;16.478;2023-04-19T02:07:40;99953.63;;;9.03;75.84
19594;BME280;9944;48.240;16.478;2023-04-19T02:11:44;99946.59;;;9.02;76.18
19594;BME280;9944;48.240;16.478;2023-04-19T02:15:47;99948.38;;;9.06;75.99
19594;BME280;9944;48.240;16.478;2023-04-19T02:19:51;99941.34;;;9.05;76.02
19594;BME280;9944;48.240;16.478;2023-04-19T02:23:54;99942.22;;;9.07;76.39
19594;BME280;9944;48.240;16.478;2023-04-19T02:27:59;99929.94;;;9.09;76.42
19594;BME280;9944;48.240;16.478;2023-04-19T02:32:02;99930.84;;;9.09;76.44
19594;BME280;9944;48.240;16.478;2023-04-19T02:36:07;99924.66;;;9.09;76.45
19594;BME280;9944;48.240;16.478;2023-04-19T02:40:10;99930.81;;;9.08;76.28
19594;BME280;9944;48.240;16.478;2023-04-19T02:44:15;99926.44;;;9.10;76.31
19594;BME280;9944;48.240;16.478;2023-04-19T02:48:19;99922.06;;;9.12;76.59
19594;BME280;9944;48.240;16.478;2023-04-19T02:52:22;99920.31;;;9.11;76.36
19594;BME280;9944;48.240;16.478;2023-04-19T02:56:25;99918.56;;;9.13;76.57
19594;BME280;9944;48.240;16.478;2023-04-19T03:00:30;99915.91;;;9.11;76.43
19594;BME280;9944;48.240;16.478;2023-04-19T03:04:39;99911.53;;;9.12;76.46
19594;BME280;9944;48.240;16.478;2023-04-19T03:08:44;99910.66;;;9.11;76.59
19594;BME280;9944;48.240;16.478;2023-04-19T03:12:48;99909.75;;;9.14;76.74
19594;BME280;9944;48.240;16.478;2023-04-19T03:16:52;99908.00;;;9.16;76.56
19594;BME280;9944;48.240;16.478;2023-04-19T03:20:56;99893.97;;;9.14;76.51
19594;BME280;9944;48.240;16.478;2023-04-19T03:25:04;99896.59;;;9.14;76.38
19594;BME280;9944;48.240;16.478;2023-04-19T03:29:09;99894.88;;;9.15;76.60
19594;BME280;9944;48.240;16.478;2023-04-19T03:33:18;99885.19;;;9.15;76.61
19594;BME280;9944;48.240;16.478;2023-04-19T03:37:21;99885.19;;;9.15;76.68
19594;BME280;9944;48.240;16.478;2023-04-19T03:41:26;99880.78;;;9.14;76.64
19594;BME280;9944;48.240;16.478;2023-04-19T03:45:47;99883.44;;;9.14;77.15
19594;BME280;9944;48.240;16.478;2023-04-19T03:49:52;99883.41;;;9.12;76.93
19594;BME280;9944;48.240;16.478;2023-04-19T03:53:56;99875.53;;;9.14;76.98
19594;BME280;9944;48.240;16.478;2023-04-19T03:57:59;99885.19;;;9.12;77.13
19594;BME280;9944;48.240;16.478;2023-04-19T04:02:14;99879.91;;;9.12;77.12
19594;BME280;9944;48.240;16.478;2023-04-19T04:06:19;99880.78;;;9.08;77.43
19594;BME280;9944;48.240;16.478;2023-04-19T04:10:22;99868.50;;;9.08;77.30
19594;BME280;9944;48.240;16.478;2023-04-19T04:14:26;99879.00;;;9.04;77.72
19594;BME280;9944;48.240;16.478;2023-04-19T04:18:29;99883.38;;;9.02;78.16
19594;BME280;9944;48.240;16.478;2023-04-19T04:22:39;99874.59;;;9.00;78.33
19594;BME280;9944;48.240;16.478;2023-04-19T04:26:47;99876.38;;;9.01;78.45
19594;BME280;9944;48.240;16.478;2023-04-19T04:30:56;99880.75;;;9.00;79.13
19594;BME280;9944;48.240;16.478;2023-04-19T04:35:04;99879.88;;;9.00;79.25
19594;BME280;9944;48.240;16.478;2023-04-19T04:39:17;99876.34;;;8.98;79.63
19594;BME280;9944;48.240;16.478;2023-04-19T04:43:21;99881.59;;;8.95;79.52
19594;BME280;9944;48.240;16.478;2023-04-19T04:47:29;99871.06;;;8.95;79.97
19594;BME280;9944;48.240;16.478;2023-04-19T04:51:36;99869.31;;;8.90;80.07
19594;BME280;9944;48.240;16.478;2023-04-19T04:55:41;99869.28;;;8.87;80.81
19594;BME280;9944;48.240;16.478;2023-04-19T04:59:46;99862.25;;;8.85;81.02
19594;BME280;9944;48.240;16.478;2023-04-19T05:03:52;99862.25;;;8.86;81.29
19594;BME280;9944;48.240;16.478;2023-04-19T05:07:56;99857.00;;;8.86;81.26
19594;BME280;9944;48.240;16.478;2023-04-19T05:12:01;99859.66;;;8.89;81.41
19594;BME280;9944;48.240;16.478;2023-04-19T05:16:05;99851.75;;;8.89;81.66
19594;BME280;9944;48.240;16.478;2023-04-19T05:20:09;99850.00;;;8.91;82.05
19594;BME280;9944;48.240;16.478;2023-04-19T05:24:12;99857.03;;;8.91;81.71
19594;BME280;9944;48.240;16.478;2023-04-19T05:28:18;99855.28;;;8.95;81.98
19594;BME280;9944;48.240;16.478;2023-04-19T05:32:44;99853.53;;;8.97;82.03
19594;BME280;9944;48.240;16.478;2023-04-19T05:36:49;99850.00;;;8.95;81.96
19594;BME280;9944;48.240;16.478;2023-04-19T05:40:52;99838.59;;;8.91;82.15
19594;BME280;9944;48.240;16.478;2023-04-19T05:44:57;99842.97;;;8.93;82.07
19594;BME280;9944;48.240;16.478;2023-04-19T05:49:01;99839.47;;;8.91;82.21
19594;BME280;9944;48.240;16.478;2023-04-19T05:53:23;99837.72;;;8.93;82.63
19594;BME280;9944;48.240;16.478;2023-04-19T05:57:27;99828.97;;;8.98;82.88
19594;BME280;9944;48.240;16.478;2023-04-19T06:01:32;99837.75;;;9.00;83.11
19594;BME280;9944;48.240;16.478;2023-04-19T06:05:36;99829.88;;;9.04;83.01
19594;BME280;9944;48.240;16.478;2023-04-19T06:09:41;99829.84;;;9.07;83.37
19594;BME280;9944;48.240;16.478;2023-04-19T06:13:44;99829.00;;;9.08;83.40
19594;BME280;9944;48.240;16.478;2023-04-19T06:17:49;99827.22;;;9.09;83.33
19594;BME280;9944;48.240;16.478;2023-04-19T06:21:52;99829.88;;;9.09;83.58
19594;BME280;9944;48.240;16.478;2023-04-19T06:25:56;99828.13;;;9.11;83.48
19594;BME280;9944;48.240;16.478;2023-04-19T06:29:59;99823.75;;;9.13;83.53
19594;BME280;9944;48.240;16.478;2023-04-19T06:34:03;99834.28;;;9.13;83.70
19594;BME280;9944;48.240;16.478;2023-04-19T06:38:06;99832.53;;;9.15;84.01
19594;BME280;9944;48.240;16.478;2023-04-19T06:42:09;99829.88;;;9.21;83.77
19594;BME280;9944;48.240;16.478;2023-04-19T06:46:13;99825.53;;;9.23;84.14
19594;BME280;9944;48.240;16.478;2023-04-19T06:50:18;99827.28;;;9.24;83.72
19594;BME280;9944;48.240;16.478;2023-04-19T06:54:21;99827.28;;;9.24;83.39
19594;BME280;9944;48.240;16.478;2023-04-19T06:58:24;99823.75;;;9.22;83.32
19594;BME280;9944;48.240;16.478;2023-04-19T07:02:27;99821.13;;;9.21;83.21
19594;BME280;9944;48.240;16.478;2023-04-19T07:06:32;99828.13;;;9.16;82.83
19594;BME280;9944;48.240;16.478;2023-04-19T07:10:35;99821.13;;;9.13;82.87
19594;BME280;9944;48.240;16.478;2023-04-19T07:14:38;99820.25;;;9.11;83.10
19594;BME280;9944;48.240;16.478;2023-04-19T07:18:41;99825.50;;;9.08;83.17
19594;BME280;9944;48.240;16.478;2023-04-19T07:22:46;99824.59;;;9.03;83.17
19594;BME280;9944;48.240;16.478;2023-04-19T07:26:49;99823.72;;;8.99;83.73
19594;BME280;9944;48.240;16.478;2023-04-19T07:30:52;99828.09;;;9.00;84.04
19594;BME280;9944;48.240;16.478;2023-04-19T07:34:56;99818.44;;;8.98;84.18
19594;BME280;9944;48.240;16.478;2023-04-19T07:39:00;99816.66;;;8.97;84.28
19594;BME280;9944;48.240;16.478;2023-04-19T07:43:03;99819.31;;;8.98;84.49
19594;BME280;9944;48.240;16.478;2023-04-19T07:47:07;99814.94;;;9.02;84.79
19594;BME280;9944;48.240;16.478;2023-04-19T07:51:11;99818.44;;;9.02;84.70
19594;BME280;9944;48.240;16.478;2023-04-19T07:55:15;99816.69;;;9.03;84.80
19594;BME280;9944;48.240;16.478;2023-04-19T07:59:18;99818.44;;;9.07;85.22
19594;BME280;9944;48.240;16.478;2023-04-19T08:03:21;99810.53;;;9.05;85.27
19594;BME280;9944;48.240;16.478;2023-04-19T08:07:25;99823.72;;;9.07;85.16
19594;BME280;9944;48.240;16.478;2023-04-19T08:11:29;99814.97;;;9.08;85.62
19594;BME280;9944;48.240;16.478;2023-04-19T08:15:33;99809.69;;;9.08;85.67
19594;BME280;9944;48.240;16.478;2023-04-19T08:19:39;99813.19;;;9.10;85.91
19594;BME280;9944;48.240;16.478;2023-04-19T08:23:42;99807.06;;;9.14;85.86
19594;BME280;9944;48.240;16.478;2023-04-19T08:27:50;99813.22;;;9.19;86.22
19594;BME280;9944;48.240;16.478;2023-04-19T08:31:53;99815.00;;;9.23;86.10
19594;BME280;9944;48.240;16.478;2023-04-19T08:35:56;99814.13;;;9.30;86.61
19594;BME280;9944;48.240;16.478;2023-04-19T08:40:00;99811.50;;;9.34;86.12
19594;BME280;9944;48.240;16.478;2023-04-19T08:44:06;99806.22;;;9.37;86.52
19594;BME280;9944;48.240;16.478;2023-04-19T08:48:09;99812.38;;;9.37;86.59
19594;BME280;9944;48.240;16.478;2023-04-19T08:52:13;99812.38;;;9.39;86.30
19594;BME280;9944;48.240;16.478;2023-04-19T08:56:18;99808.88;;;9.43;86.70
19594;BME280;9944;48.240;16.478;2023-04-19T09:00:38;99807.97;;;9.47;86.60
19594;BME280;9944;48.240;16.478;2023-04-19T09:04:42;99806.22;;;9.49;86.71
19594;BME280;9944;48.240;16.478;2023-04-19T09:08:45;99805.34;;;9.47;86.45
19594;BME280;9944;48.240;16.478;2023-04-19T09:13:03;99809.75;;;9.39;86.26
19594;BME280;9944;48.240;16.478;2023-04-19T09:17:15;99809.75;;;9.36;86.15
19594;BME280;9944;48.240;16.478;2023-04-19T09:21:26;99816.75;;;9.30;85.86
19594;BME280;9944;48.240;16.478;2023-04-19T09:25:30;99815.88;;;9.25;85.09
19594;BME280;9944;48.240;16.478;2023-04-19T09:29:53;99815.84;;;9.18;85.73
19594;BME280;9944;48.240;16.478;2023-04-19T09:34:11;99811.47;;;9.18;85.63
19594;BME280;9944;48.240;16.478;2023-04-19T09:38:15;99809.69;;;9.08;84.42
19594;BME280;9944;48.240;16.478;2023-04-19T09:42:18;99823.69;;;9.02;84.14
19594;BME280;9944;48.240;16.478;2023-04-19T09:46:41;99828.97;;;8.98;83.71
19594;BME280;9944;48.240;16.478;2023-04-19T09:50:55;99816.66;;;8.97;83.52
19594;BME280;9944;48.240;16.478;2023-04-19T09:55:07;99811.41;;;9.00;84.27
19594;BME280;9944;48.240;16.478;2023-04-19T09:59:26;99817.59;;;9.06;84.16
19594;BME280;9944;48.240;16.478;2023-04-19T10:03:29;99806.19;;;9.14;84.18
19594;BME280;9944;48.240;16.478;2023-04-19T10:07:35;99814.09;;;9.21;84.51
19594;BME280;9944;48.240;16.478;2023-04-19T10:11:39;99810.63;;;9.28;84.29
19594;BME280;9944;48.240;16.478;2023-04-19T10:15:45;99810.59;;;9.31;84.10
19594;BME280;9944;48.240;16.478;2023-04-19T10:20:03;99808.88;;;9.44;84.57
19594;BME280;9944;48.240;16.478;2023-04-19T10:24:12;99797.47;;;9.52;83.54
19594;BME280;9944;48.240;16.478;2023-04-19T10:28:15;99799.22;;;9.57;83.79
19594;BME280;9944;48.240;16.478;2023-04-19T10:32:18;99795.72;;;9.61;83.03
19594;BME280;9944;48.240;16.478;2023-04-19T10:36:22;99801.84;;;9.69;83.25
19594;BME280;9944;48.240;16.478;2023-04-19T10:40:55;99792.19;;;9.75;83.09
19594;BME280;9944;48.240;16.478;2023-04-19T10:45:30;99788.69;;;9.77;82.85
19594;BME280;9944;48.240;16.478;2023-04-19T10:49:43;99797.47;;;9.84;83.24
19594;BME280;9944;48.240;16.478;2023-04-19T10:53:57;99785.16;;;9.94;83.74
19594;BME280;9944;48.240;16.478;2023-04-19T10:58:02;99781.63;;;10.12;83.79
19594;BME280;9944;48.240;16.478;2023-04-19T11:02:26;99779.84;;;10.21;82.36
19594;BME280;9944;48.240;16.478;2023-04-19T11:06:30;99772.75;;;10.36;81.92
19594;BME280;9944;48.240;16.478;2023-04-19T11:10:33;99770.09;;;10.39;81.30
19594;BME280;9944;48.240;16.478;2023-04-19T11:14:40;99751.63;;;10.45;79.92
19594;BME280;9944;48.240;16.478;2023-04-19T11:18:43;99747.22;;;10.47;79.81
19594;BME280;9944;48.240;16.478;2023-04-19T11:22:46;99755.94;;;10.63;79.47
19594;BME280;9944;48.240;16.478;2023-04-19T11:26:49;99750.56;;;10.80;78.07
19594;BME280;9944;48.240;16.478;2023-04-19T11:30:57;99749.59;;;10.95;76.30
19594;BME280;9944;48.240;16.478;2023-04-19T11:35:05;99747.84;;;10.98;75.41
19594;BME280;9944;48.240;16.478;2023-04-19T11:39:09;99736.34;;;11.06;75.82
19594;BME280;9944;48.240;16.478;2023-04-19T11:43:12;99731.94;;;11.00;74.17
19594;BME280;9944;48.240;16.478;2023-04-19T11:47:17;99747.88;;;10.92;74.18
19594;BME280;9944;48.240;16.478;2023-04-19T11:51:21;99747.00;;;10.86;73.33
19594;BME280;9944;48.240;16.478;2023-04-19T11:55:24;99749.72;;;10.73;72.83
19594;BME280;9944;48.240;16.478;2023-04-19T11:59:28;99755.06;;;10.61;72.89
19594;BME280;9944;48.240;16.478;2023-04-19T12:03:33;99754.22;;;10.57;74.40
19594;BME280;9944;48.240;16.478;2023-04-19T12:08:02;99752.44;;;10.56;75.11
19594;BME280;9944;48.240;16.478;2023-04-19T12:12:07;99753.34;;;10.51;75.23
19594;BME280;9944;48.240;16.478;2023-04-19T12:16:10;99751.59;;;10.50;75.50
19594;BME280;9944;48.240;16.478;2023-04-19T12:20:29;99742.78;;;10.52;76.09
19594;BME280;9944;48.240;16.478;2023-04-19T12:24:32;99741.88;;;10.55;76.25
19594;BME280;9944;48.240;16.478;2023-04-19T12:28:35;99738.38;;;10.57;76.26
19594;BME280;9944;48.240;16.478;2023-04-19T12:32:38;99739.19;;;10.67;76.65
19594;BME280;9944;48.240;16.478;2023-04-19T12:36:43;99734.81;;;10.68;76.34
19594;BME280;9944;48.240;16.478;2023-04-19T12:40:46;99727.75;;;10.70;75.31
19594;BME280;9944;48.240;16.478;2023-04-19T12:44:49;99718.03;;;10.75;75.12
19594;BME280;9944;48.240;16.478;2023-04-19T12:48:52;99706.53;;;10.87;75.24
19594;BME280;9944;48.240;16.478;2023-04-19T12:52:57;99709.09;;;10.96;74.68
19594;BME280;9944;48.240;16.478;2023-04-19T12:57:00;99712.56;;;11.04;73.93
19594;BME280;9944;48.240;16.478;2023-04-19T13:01:04;99716.94;;;11.08;73.66
19594;BME280;9944;48.240;16.478;2023-04-19T13:05:08;99716.06;;;11.09;72.31
19594;BME280;9944;48.240;16.478;2023-04-19T13:09:14;99715.16;;;11.12;72.67
19594;BME280;9944;48.240;16.478;2023-04-19T13:13:18;99716.00;;;11.15;72.90
19594;BME280;9944;48.240;16.478;2023-04-19T13:17:21;99721.28;;;11.17;73.34
19594;BME280;9944;48.240;16.478;2023-04-19T13:21:24;99714.22;;;11.17;73.61
19594;BME280;9944;48.240;16.478;2023-04-19T13:25:29;99716.06;;;11.09;73.18
19594;BME280;9944;48.240;16.478;2023-04-19T13:29:33;99707.31;;;11.01;72.53
19594;BME280;9944;48.240;16.478;2023-04-19T13:33:36;99718.78;;;10.97;72.77
19594;BME280;9944;48.240;16.478;2023-04-19T13:37:39;99712.66;;;10.89;72.10
19594;BME280;9944;48.240;16.478;2023-04-19T13:41:46;99719.75;;;10.82;71.98
19594;BME280;9944;48.240;16.478;2023-04-19T13:45:49;99718.91;;;10.74;71.46
19594;BME280;9944;48.240;16.478;2023-04-19T13:49:52;99716.25;;;10.81;72.12
19594;BME280;9944;48.240;16.478;2023-04-19T13:53:55;99717.94;;;10.92;71.16
19594;BME280;9944;48.240;16.478;2023-04-19T13:58:00;99712.56;;;11.03;71.58
19594;BME280;9944;48.240;16.478;2023-04-19T14:02:03;99716.91;;;11.11;71.33
19594;BME280;9944;48.240;16.478;2023-04-19T14:06:06;99706.25;;;11.25;70.96
19594;BME280;9944;48.240;16.478;2023-04-19T14:10:10;99694.81;;;11.25;69.61
19594;BME280;9944;48.240;16.478;2023-04-19T14:14:14;99688.69;;;11.21;69.58
19594;BME280;9944;48.240;16.478;2023-04-19T14:18:18;99695.72;;;11.17;69.27
19594;BME280;9944;48.240;16.478;2023-04-19T14:22:21;99686.91;;;11.18;69.60
19594;BME280;9944;48.240;16.478;2023-04-19T14:26:24;99685.19;;;11.16;69.15
19594;BME280;9944;48.240;16.478;2023-04-19T14:30:29;99687.03;;;11.02;66.90
19594;BME280;9944;48.240;16.478;2023-04-19T14:34:32;99688.94;;;10.84;64.79
19594;BME280;9944;48.240;16.478;2023-04-19T14:38:35;99694.28;;;10.72;65.03
19594;BME280;9944;48.240;16.478;2023-04-19T14:42:39;99696.94;;;10.67;66.12
19594;BME280;9944;48.240;16.478;2023-04-19T14:46:43;99694.28;;;10.70;66.70
19594;BME280;9944;48.240;16.478;2023-04-19T14:50:47;99696.94;;;10.70;66.27
19594;BME280;9944;48.240;16.478;2023-04-19T14:54:50;99706.69;;;10.60;66.17
19594;BME280;9944;48.240;16.478;2023-04-19T14:58:53;99707.56;;;10.55;66.18
19594;BME280;9944;48.240;16.478;2023-04-19T15:02:58;99703.19;;;10.57;66.78
19594;BME280;9944;48.240;16.478;2023-04-19T15:07:02;99704.94;;;10.56;66.66
19594;BME280;9944;48.240;16.478;2023-04-19T15:11:05;99710.25;;;10.52;66.32
19594;BME280;9944;48.240;16.478;2023-04-19T15:15:09;99709.34;;;10.53;65.87
19594;BME280;9944;48.240;16.478;2023-04-19T15:19:13;99719.03;;;10.51;65.77
19594;BME280;9944;48.240;16.478;2023-04-19T15:23:19;99705.84;;;10.51;65.76
19594;BME280;9944;48.240;16.478;2023-04-19T15:27:22;99698.78;;;10.53;65.57
19594;BME280;9944;48.240;16.478;2023-04-19T15:31:25;99702.28;;;10.58;65.59
19594;BME280;9944;48.240;16.478;2023-04-19T15:35:30;99695.22;;;10.60;65.85
19594;BME280;9944;48.240;16.478;2023-04-19T15:39:34;99696.09;;;10.63;65.74
19594;BME280;9944;48.240;16.478;2023-04-19T15:43:37;99695.19;;;10.69;65.97
19594;BME280;9944;48.240;16.478;2023-04-19T15:47:40;99705.72;;;10.72;66.01
19594;BME280;9944;48.240;16.478;2023-04-19T15:51:44;99712.75;;;10.76;65.99
19594;BME280;9944;48.240;16.478;2023-04-19T15:55:48;99709.19;;;10.80;65.79
19594;BME280;9944;48.240;16.478;2023-04-19T15:59:51;99710.09;;;10.76;65.62
19594;BME280;9944;48.240;16.478;2023-04-19T16:03:54;99719.81;;;10.74;65.87
19594;BME280;9944;48.240;16.478;2023-04-19T16:08:02;99711.00;;;10.72;65.38
19594;BME280;9944;48.240;16.478;2023-04-19T16:12:05;99710.13;;;10.69;65.54
19594;BME280;9944;48.240;16.478;2023-04-19T16:16:08;99714.56;;;10.68;65.61
19594;BME280;9944;48.240;16.478;2023-04-19T16:20:12;99713.69;;;10.61;65.16
19594;BME280;9944;48.240;16.478;2023-04-19T16:24:16;99710.22;;;10.56;65.30
19594;BME280;9944;48.240;16.478;2023-04-19T16:28:19;99710.19;;;10.64;65.81
19594;BME280;9944;48.240;16.478;2023-04-19T16:32:22;99716.31;;;10.71;66.05
19594;BME280;9944;48.240;16.478;2023-04-19T16:36:26;99709.19;;;10.80;66.19
19594;BME280;9944;48.240;16.478;2023-04-19T16:40:30;99712.69;;;10.81;65.70
19594;BME280;9944;48.240;16.478;2023-04-19T16:44:34;99710.97;;;10.75;65.37
19594;BME280;9944;48.240;16.478;2023-04-19T16:48:37;99714.53;;;10.71;65.57
19594;BME280;9944;48.240;16.478;2023-04-19T16:52:40;99727.75;;;10.63;65.49
19594;BME280;9944;48.240;16.478;2023-04-19T16:56:44;99725.19;;;10.53;65.55
19594;BME280;9944;48.240;16.478;2023-04-19T17:00:48;99722.59;;;10.43;65.75
19594;BME280;9944;48.240;16.478;2023-04-19T17:04:51;99741.06;;;10.39;66.24
19594;BME280;9944;48.240;16.478;2023-04-19T17:08:54;99740.22;;;10.35;66.54
19594;BME280;9944;48.240;16.478;2023-04-19T17:12:59;99749.03;;;10.31;66.51
19594;BME280;9944;48.240;16.478;2023-04-19T17:17:02;99741.13;;;10.25;66.96
19594;BME280;9944;48.240;16.478;2023-04-19T17:21:05;99742.91;;;10.23;66.18
19594;BME280;9944;48.240;16.478;2023-04-19T17:25:08;99747.31;;;10.16;66.47
19594;BME280;9944;48.240;16.478;2023-04-19T17:29:13;99745.56;;;10.14;66.83
19594;BME280;9944;48.240;16.478;2023-04-19T17:33:16;99745.53;;;10.17;67.04
19594;BME280;9944;48.240;16.478;2023-04-19T17:37:19;99749.09;;;10.16;67.60
19594;BME280;9944;48.240;16.478;2023-04-19T17:41:22;99754.34;;;10.16;67.57
19594;BME280;9944;48.240;16.478;2023-04-19T17:45:27;99763.13;;;10.16;67.63
19594;BME280;9944;48.240;16.478;2023-04-19T17:49:30;99769.28;;;10.17;67.82
19594;BME280;9944;48.240;16.478;2023-04-19T17:53:33;99782.47;;;10.17;67.85
19594;BME280;9944;48.240;16.478;2023-04-19T17:57:36;99783.38;;;10.16;67.85
19594;BME280;9944;48.240;16.478;2023-04-19T18:01:41;99788.66;;;10.10;67.99
19594;BME280;9944;48.240;16.478;2023-04-19T18:05:44;99793.91;;;10.10;67.86
19594;BME280;9944;48.240;16.478;2023-04-19T18:09:47;99795.69;;;10.14;68.28
19594;BME280;9944;48.240;16.478;2023-04-19T18:13:50;99796.56;;;10.14;68.67
19594;BME280;9944;48.240;16.478;2023-04-19T18:17:54;99800.97;;;10.08;68.28
19594;BME280;9944;48.240;16.478;2023-04-19T18:21:58;99802.75;;;9.96;67.96
19594;BME280;9944;48.240;16.478;2023-04-19T18:26:02;99816.78;;;9.86;67.63
19594;BME280;9944;48.240;16.478;2023-04-19T18:30:06;99816.78;;;9.86;68.18
19594;BME280;9944;48.240;16.478;2023-04-19T18:34:11;99819.44;;;9.86;68.31
19594;BME280;9944;48.240;16.478;2023-04-19T18:38:14;99823.84;;;9.96;68.57
19594;BME280;9944;48.240;16.478;2023-04-19T18:42:17;99827.34;;;9.92;67.53
19594;BME280;9944;48.240;16.478;2023-04-19T18:46:20;99821.16;;;9.85;67.49
19594;BME280;9944;48.240;16.478;2023-04-19T18:50:26;99827.31;;;9.81;67.72
19594;BME280;9944;48.240;16.478;2023-04-19T18:54:29;99836.13;;;9.77;67.66
19594;BME280;9944;48.240;16.478;2023-04-19T18:58:32;99835.25;;;9.75;67.79
19594;BME280;9944;48.240;16.478;2023-04-19T19:02:35;99844.03;;;9.73;68.09
19594;BME280;9944;48.240;16.478;2023-04-19T19:06:43;99841.38;;;9.69;67.62
19594;BME280;9944;48.240;16.478;2023-04-19T19:10:46;99844.91;;;9.68;68.15
19594;BME280;9944;48.240;16.478;2023-04-19T19:15:09;99852.81;;;9.64;68.37
19594;BME280;9944;48.240;16.478;2023-04-19T19:19:12;99864.25;;;9.61;67.93
19594;BME280;9944;48.240;16.478;2023-04-19T19:23:17;99867.72;;;9.54;68.23
19594;BME280;9944;48.240;16.478;2023-04-19T19:27:26;99871.25;;;9.53;68.20
19594;BME280;9944;48.240;16.478;2023-04-19T19:31:29;99866.84;;;9.47;68.43
19594;BME280;9944;48.240;16.478;2023-04-19T19:35:33;99872.09;;;9.41;68.23
19594;BME280;9944;48.240;16.478;2023-04-19T19:39:38;99872.97;;;9.36;68.51
19594;BME280;9944;48.240;16.478;2023-04-19T19:43:41;99871.19;;;9.31;68.97
19594;BME280;9944;48.240;16.478;2023-04-19T19:47:45;99876.47;;;9.25;69.18
19594;BME280;9944;48.240;16.478;2023-04-19T19:51:51;99875.56;;;9.23;69.67
19594;BME280;9944;48.240;16.478;2023-04-19T19:56:01;99876.41;;;9.16;69.69
19594;BME280;9944;48.240;16.478;2023-04-19T20:00:06;99872.00;;;9.06;69.76
19594;BME280;9944;48.240;16.478;2023-04-19T20:04:14;99867.56;;;8.99;69.98
19594;BME280;9944;48.240;16.478;2023-04-19T20:08:17;99871.94;;;8.89;69.69
19594;BME280;9944;48.240;16.478;2023-04-19T20:12:22;99866.59;;;8.80;69.90
19594;BME280;9944;48.240;16.478;2023-04-19T20:16:25;99862.19;;;8.74;69.77
19594;BME280;9944;48.240;16.478;2023-04-19T20:20:29;99864.81;;;8.66;69.85
19594;BME280;9944;48.240;16.478;2023-04-19T20:24:32;99868.28;;;8.59;69.84
19594;BME280;9944;48.240;16.478;2023-04-19T20:28:37;99863.84;;;8.50;69.90
19594;BME280;9944;48.240;16.478;2023-04-19T20:32:40;99860.28;;;8.42;69.81
19594;BME280;9944;48.240;16.478;2023-04-19T20:36:43;99874.28;;;8.35;69.89
19594;BME280;9944;48.240;16.478;2023-04-19T20:40:48;99876.00;;;8.31;70.07
19594;BME280;9944;48.240;16.478;2023-04-19T20:44:52;99875.06;;;8.29;69.98
19594;BME280;9944;48.240;16.478;2023-04-19T20:48:55;99889.94;;;8.23;70.32
19594;BME280;9944;48.240;16.478;2023-04-19T20:52:58;99894.28;;;8.17;70.32
19594;BME280;9944;48.240;16.478;2023-04-19T20:57:02;99888.06;;;8.08;70.54
19594;BME280;9944;48.240;16.478;2023-04-19T21:01:07;99892.44;;;8.04;70.61
19594;BME280;9944;48.240;16.478;2023-04-19T21:05:10;99897.63;;;7.95;70.68
19594;BME280;9944;48.240;16.478;2023-04-19T21:09:13;99900.22;;;7.92;70.98
19594;BME280;9944;48.240;16.478;2023-04-19T21:13:17;99898.44;;;7.88;71.23
19594;BME280;9944;48.240;16.478;2023-04-19T21:17:21;99892.25;;;7.84;71.59
19594;BME280;9944;48.240;16.478;2023-04-19T21:21:25;99886.97;;;7.84;71.20
19594;BME280;9944;48.240;16.478;2023-04-19T21:25:28;99892.19;;;7.76;71.39
19594;BME280;9944;48.240;16.478;2023-04-19T21:29:32;99890.41;;;7.75;71.71
19594;BME280;9944;48.240;16.478;2023-04-19T21:33:36;99883.41;;;7.74;71.92
19594;BME280;9944;48.240;16.478;2023-04-19T21:37:39;99884.28;;;7.73;72.29
19594;BME280;9944;48.240;16.478;2023-04-19T21:41:42;99889.56;;;7.76;72.53
19594;BME280;9944;48.240;16.478;2023-04-19T21:45:45;99894.75;;;7.70;72.47
19594;BME280;9944;48.240;16.478;2023-04-19T21:49:50;99898.25;;;7.68;72.62